createdAt,value
2023-03-17T00:01:44.978Z,4.03
2023-03-17T00:04:13.500Z,4.33
2023-03-17T00:06:42.659Z,3.83
2023-03-17T00:09:14.613Z,3.90
2023-03-17T00:11:42.940Z,4.50
2023-03-17T00:14:11.276Z,4.50
2023-03-17T00:16:43.730Z,4.40
2023-03-17T00:19:16.624Z,3.70
2023-03-17T00:21:45.171Z,3.27
2023-03-17T00:24:15.355Z,4.37
2023-03-17T00:26:43.670Z,3.47
2023-03-17T00:29:11.974Z,3.70
2023-03-17T00:31:41.334Z,3.73
2023-03-17T00:34:13.092Z,3.87
2023-03-17T00:36:49.685Z,4.40
2023-03-17T00:39:18.498Z,4.30
2023-03-17T00:41:50.329Z,4.33
2023-03-17T00:44:18.518Z,4.30
2023-03-17T00:46:50.765Z,3.90
2023-03-17T00:49:21.230Z,4.50
2023-03-17T00:51:50.611Z,4.50
2023-03-17T00:54:20.547Z,4.53
2023-03-17T00:56:49.234Z,5.20
2023-03-17T00:59:22.618Z,4.47
2023-03-17T01:01:52.085Z,4.63
2023-03-17T01:04:22.792Z,4.30
2023-03-17T01:06:52.134Z,3.30
2023-03-17T01:09:21.139Z,4.40
2023-03-17T01:11:49.367Z,6.30
2023-03-17T01:14:17.795Z,5.80
2023-03-17T01:16:45.849Z,5.00
2023-03-17T01:19:16.996Z,5.80
2023-03-17T01:21:45.624Z,5.53
2023-03-17T01:24:14.429Z,4.47
2023-03-17T01:26:42.284Z,4.20
2023-03-17T01:29:10.250Z,4.60
2023-03-17T01:31:39.205Z,4.13
2023-03-17T01:34:07.170Z,4.83
2023-03-17T01:36:37.497Z,4.03
2023-03-17T01:39:07.334Z,5.30
2023-03-17T01:41:40.010Z,4.67
2023-03-17T01:44:08.571Z,4.77
2023-03-17T01:46:37.562Z,4.83
2023-03-17T01:49:14.689Z,4.90
2023-03-17T01:51:52.649Z,6.00
2023-03-17T01:54:25.584Z,4.57
2023-03-17T01:57:01.091Z,4.03
2023-03-17T01:59:35.914Z,5.63
2023-03-17T02:02:09.117Z,5.40
2023-03-17T02:04:38.638Z,5.53
2023-03-17T02:07:08.670Z,6.00
2023-03-17T02:09:38.700Z,5.77
2023-03-17T02:12:09.218Z,5.60
2023-03-17T02:14:39.382Z,5.97
2023-03-17T02:17:07.848Z,4.60
2023-03-17T02:19:35.864Z,4.07
2023-03-17T02:22:05.609Z,4.07
2023-03-17T02:24:38.617Z,6.10
2023-03-17T02:27:11.936Z,5.80
2023-03-17T02:29:40.405Z,5.70
2023-03-17T02:32:10.916Z,5.20
2023-03-17T02:34:38.681Z,5.47
2023-03-17T02:37:08.799Z,5.53
2023-03-17T02:39:37.973Z,5.73
2023-03-17T02:42:07.060Z,5.10
2023-03-17T02:44:35.438Z,5.70
2023-03-17T02:47:04.330Z,6.00
2023-03-17T02:49:33.844Z,5.57
2023-03-17T02:52:02.675Z,5.27
2023-03-17T02:54:32.324Z,4.90
2023-03-17T02:57:01.029Z,4.83
2023-03-17T02:59:29.134Z,5.07
2023-03-17T03:01:57.448Z,4.83
2023-03-17T03:04:26.301Z,4.50
2023-03-17T03:06:55.186Z,5.10
2023-03-17T03:09:24.164Z,4.97
2023-03-17T03:11:53.367Z,4.53
2023-03-17T03:14:21.289Z,4.73
2023-03-17T03:16:49.789Z,4.80
2023-03-17T03:19:17.664Z,5.93
2023-03-17T03:21:46.165Z,5.10
2023-03-17T03:24:14.154Z,5.70
2023-03-17T03:26:42.479Z,4.70
2023-03-17T03:29:11.649Z,4.33
2023-03-17T03:31:39.547Z,5.27
2023-03-17T03:34:07.543Z,4.50
2023-03-17T03:36:35.453Z,5.10
2023-03-17T03:39:03.277Z,4.60
2023-03-17T03:41:31.203Z,5.53
2023-03-17T03:43:59.046Z,5.10
2023-03-17T03:46:29.079Z,5.80
2023-03-17T03:48:56.950Z,5.17
2023-03-17T03:51:24.982Z,5.93
2023-03-17T03:53:52.883Z,5.60
2023-03-17T03:56:20.779Z,6.80
2023-03-17T03:58:48.548Z,5.43
2023-03-17T04:01:16.527Z,5.50
2023-03-17T04:03:47.209Z,4.90
2023-03-17T04:06:16.221Z,5.07
2023-03-17T04:08:44.436Z,6.40
2023-03-17T04:11:12.397Z,5.40
2023-03-17T04:13:40.212Z,4.70
2023-03-17T04:16:08.814Z,4.90
2023-03-17T04:18:36.964Z,5.53
2023-03-17T04:21:07.115Z,4.87
2023-03-17T04:23:35.509Z,4.87
2023-03-17T04:26:04.079Z,4.50
2023-03-17T04:28:32.456Z,4.63
2023-03-17T04:31:00.575Z,5.53
2023-03-17T04:33:28.777Z,5.80
2023-03-17T04:35:56.960Z,5.97
2023-03-17T04:38:26.144Z,5.97
2023-03-17T04:40:54.411Z,6.27
2023-03-17T04:43:22.205Z,6.27
2023-03-17T04:45:50.060Z,4.80
2023-03-17T04:48:17.944Z,8.70
2023-03-17T04:50:47.764Z,6.20
2023-03-17T04:53:15.607Z,6.53
2023-03-17T04:55:45.185Z,5.67
2023-03-17T04:58:21.117Z,4.80
2023-03-17T05:00:56.108Z,5.27
2023-03-17T05:03:28.153Z,5.23
2023-03-17T05:05:56.477Z,4.93
2023-03-17T05:08:24.399Z,4.70
2023-03-17T05:10:53.659Z,5.47
2023-03-17T05:13:22.095Z,5.00
2023-03-17T05:15:51.593Z,6.07
2023-03-17T05:18:20.926Z,5.70
2023-03-17T05:20:48.789Z,5.93
2023-03-17T05:23:17.004Z,6.33
2023-03-17T05:25:45.742Z,5.70
2023-03-17T05:28:15.012Z,5.10
2023-03-17T05:30:44.030Z,6.53
2023-03-17T05:33:11.904Z,6.03
2023-03-17T05:35:40.782Z,5.57
2023-03-17T05:38:08.730Z,6.70
2023-03-17T05:40:36.998Z,6.30
2023-03-17T05:43:06.101Z,6.07
2023-03-17T05:45:35.527Z,6.40
2023-03-17T05:48:04.301Z,7.00
2023-03-17T05:50:32.801Z,5.57
2023-03-17T05:53:00.942Z,6.20
2023-03-17T05:55:28.963Z,6.80
2023-03-17T05:57:56.939Z,6.57
2023-03-17T06:00:29.299Z,6.63
2023-03-17T06:02:59.048Z,6.80
2023-03-17T06:05:27.234Z,6.47
2023-03-17T06:07:56.569Z,6.13
2023-03-17T06:10:25.014Z,6.90
2023-03-17T06:12:52.918Z,6.67
2023-03-17T06:15:21.340Z,7.23
2023-03-17T06:17:49.324Z,7.37
2023-03-17T06:20:19.225Z,7.30
2023-03-17T06:23:02.692Z,6.73
2023-03-17T06:25:32.032Z,5.80
2023-03-17T06:28:02.433Z,6.80
2023-03-17T06:30:32.722Z,6.30
2023-03-17T06:33:01.152Z,7.00
2023-03-17T06:35:30.947Z,6.50
2023-03-17T06:37:59.098Z,6.77
2023-03-17T06:40:26.938Z,6.67
2023-03-17T06:42:54.886Z,7.03
2023-03-17T06:45:23.080Z,6.87
2023-03-17T06:47:51.174Z,5.80
2023-03-17T06:50:19.516Z,8.57
2023-03-17T06:52:48.720Z,10.13
2023-03-17T06:55:17.535Z,9.63
2023-03-17T06:57:45.872Z,9.20
2023-03-17T07:00:15.837Z,8.43
2023-03-17T07:02:44.206Z,8.23
2023-03-17T07:05:13.876Z,7.23
2023-03-17T07:07:42.453Z,6.10
2023-03-17T07:10:13.743Z,8.47
2023-03-17T07:12:41.571Z,6.90
2023-03-17T07:15:11.040Z,7.33
2023-03-17T07:17:42.210Z,18.00
2023-03-17T07:20:11.660Z,8.27
2023-03-17T07:22:39.605Z,6.73
2023-03-17T07:25:09.694Z,5.70
2023-03-17T07:27:38.972Z,5.57
2023-03-17T07:30:08.289Z,5.70
2023-03-17T07:32:36.260Z,5.13
2023-03-17T07:35:04.961Z,5.10
2023-03-17T07:37:32.943Z,5.00
2023-03-17T07:40:01.209Z,9.20
2023-03-17T07:42:30.147Z,13.50
2023-03-17T07:44:59.665Z,6.17
2023-03-17T07:47:27.531Z,5.80
2023-03-17T07:49:55.449Z,5.93
2023-03-17T07:52:23.335Z,5.60
2023-03-17T07:54:52.112Z,5.37
2023-03-17T07:57:20.079Z,5.70
2023-03-17T07:59:47.940Z,4.97
2023-03-17T08:02:19.631Z,5.10
2023-03-17T08:04:48.002Z,4.70
2023-03-17T08:07:18.624Z,4.53
2023-03-17T08:09:48.209Z,4.83
2023-03-17T08:12:20.035Z,5.10
2023-03-17T08:14:48.565Z,4.90
2023-03-17T08:17:18.079Z,4.97
2023-03-17T08:19:46.777Z,5.13
2023-03-17T08:22:15.205Z,5.27
2023-03-17T08:24:43.242Z,5.80
2023-03-17T08:27:11.211Z,5.83
2023-03-17T08:29:39.163Z,5.83
2023-03-17T08:32:08.014Z,5.60
2023-03-17T08:34:37.646Z,5.47
2023-03-17T08:37:07.004Z,4.97
2023-03-17T08:39:36.301Z,4.53
2023-03-17T08:42:06.182Z,5.20
2023-03-17T08:44:34.395Z,4.10
2023-03-17T08:47:02.325Z,5.00
2023-03-17T08:49:31.113Z,4.40
2023-03-17T08:52:00.984Z,4.87
2023-03-17T08:54:29.186Z,4.73
2023-03-17T08:56:57.132Z,3.67
2023-03-17T08:59:27.687Z,4.37
2023-03-17T09:01:55.738Z,3.47
2023-03-17T09:04:24.028Z,3.60
2023-03-17T09:07:02.735Z,3.17
2023-03-17T09:09:34.544Z,3.23
2023-03-17T09:12:04.468Z,2.90
2023-03-17T09:14:42.884Z,3.07
2023-03-17T09:17:12.168Z,3.20
2023-03-17T09:19:40.537Z,3.10
2023-03-17T09:22:08.727Z,2.50
2023-03-17T09:24:38.210Z,3.33
2023-03-17T09:27:06.445Z,2.90
2023-03-17T09:29:35.054Z,3.38
2023-03-17T09:32:03.706Z,2.70
2023-03-17T09:34:32.898Z,3.47
2023-03-17T09:37:01.003Z,3.63
2023-03-17T09:39:29.019Z,3.63
2023-03-17T09:42:19.904Z,3.42
2023-03-17T09:45:00.114Z,2.58
2023-03-17T09:47:49.877Z,3.63
2023-03-17T09:50:26.869Z,3.15
2023-03-17T09:52:58.661Z,2.70
2023-03-17T09:55:30.788Z,2.53
2023-03-17T09:58:03.496Z,2.60
2023-03-17T10:00:32.743Z,3.20
2023-03-17T10:03:02.402Z,2.88
2023-03-17T10:05:32.659Z,3.10
2023-03-17T10:08:28.942Z,2.95
2023-03-17T10:11:03.424Z,2.25
2023-03-17T10:13:46.495Z,2.15
2023-03-17T10:16:17.745Z,2.22
2023-03-17T10:18:54.301Z,2.20
2023-03-17T10:21:26.799Z,2.08
2023-03-17T10:23:56.353Z,1.70
2023-03-17T10:26:31.678Z,1.90
2023-03-17T10:29:04.163Z,2.35
2023-03-17T10:31:35.886Z,1.90
2023-03-17T10:34:15.680Z,2.00
2023-03-17T10:36:47.343Z,1.77
2023-03-17T10:39:19.662Z,1.90
2023-03-17T10:41:57.406Z,1.88
2023-03-17T10:44:44.252Z,1.65
2023-03-17T10:47:30.396Z,1.90
2023-03-17T10:49:59.815Z,1.77
2023-03-17T10:52:30.141Z,2.00
2023-03-17T10:55:03.771Z,1.65
2023-03-17T10:57:32.881Z,1.60
2023-03-17T11:00:05.111Z,1.33
2023-03-17T11:02:44.282Z,1.48
2023-03-17T11:05:20.587Z,1.65
2023-03-17T11:07:48.851Z,1.52
2023-03-17T11:10:21.008Z,1.80
2023-03-17T11:12:51.343Z,1.88
2023-03-17T11:15:21.132Z,2.58
2023-03-17T11:17:56.873Z,2.00
2023-03-17T11:20:45.762Z,1.77
2023-03-17T11:23:24.186Z,1.70
2023-03-17T11:26:03.065Z,1.55
2023-03-17T11:28:37.029Z,1.80
2023-03-17T11:31:13.132Z,1.60
2023-03-17T11:33:49.695Z,1.55
2023-03-17T11:36:31.622Z,1.73
2023-03-17T11:39:05.707Z,1.45
2023-03-17T11:41:46.067Z,1.38
2023-03-17T11:44:46.540Z,1.17
2023-03-17T11:47:28.929Z,1.40
2023-03-17T11:50:04.832Z,1.40
2023-03-17T11:52:44.518Z,1.55
2023-03-17T11:55:21.674Z,1.52
2023-03-17T11:57:55.182Z,1.42
2023-03-17T12:00:29.406Z,1.40
2023-03-17T12:03:03.364Z,1.63
2023-03-17T12:05:31.995Z,1.70
2023-03-17T12:08:04.230Z,1.45
2023-03-17T12:10:39.800Z,1.70
2023-03-17T12:13:16.636Z,1.40
2023-03-17T12:15:50.822Z,1.30
2023-03-17T12:18:25.292Z,1.60
2023-03-17T12:21:08.751Z,1.35
2023-03-17T12:23:48.150Z,1.17
2023-03-17T12:26:21.199Z,1.30
2023-03-17T12:28:55.627Z,1.60
2023-03-17T12:31:28.168Z,1.02
2023-03-17T12:34:06.466Z,1.35
2023-03-17T12:36:38.089Z,1.00
2023-03-17T12:39:12.686Z,1.20
2023-03-17T12:42:00.160Z,1.00
2023-03-17T12:44:45.888Z,1.63
2023-03-17T12:47:38.026Z,1.45
2023-03-17T12:50:28.596Z,1.25
2023-03-17T12:53:33.664Z,1.33
2023-03-17T12:56:11.985Z,1.42
2023-03-17T12:58:47.021Z,1.30
2023-03-17T13:01:24.261Z,1.10
2023-03-17T13:04:03.553Z,1.50
2023-03-17T13:06:42.027Z,1.30
2023-03-17T13:09:35.398Z,1.67
2023-03-17T13:12:05.000Z,1.52
2023-03-17T13:14:43.955Z,1.10
2023-03-17T13:17:33.760Z,1.67
2023-03-17T13:20:16.119Z,1.13
2023-03-17T13:23:03.971Z,1.33
2023-03-17T13:25:35.499Z,1.33
2023-03-17T13:28:27.100Z,2.05
2023-03-17T13:31:18.184Z,1.48
2023-03-17T13:33:50.689Z,1.70
2023-03-17T13:36:35.254Z,1.25
2023-03-17T13:39:33.452Z,1.45
2023-03-17T13:42:18.571Z,1.15
2023-03-17T13:45:07.338Z,1.20
2023-03-17T13:47:40.100Z,1.20
2023-03-17T13:50:14.371Z,1.48
2023-03-17T13:52:47.785Z,2.13
2023-03-17T13:55:43.018Z,1.58
2023-03-17T13:58:26.082Z,1.50
2023-03-17T14:01:05.263Z,2.03
2023-03-17T14:03:48.643Z,1.50
2023-03-17T14:06:21.445Z,1.40
2023-03-17T14:09:03.655Z,1.30
2023-03-17T14:11:56.914Z,1.00
2023-03-17T14:14:54.474Z,0.93
2023-03-17T14:17:46.843Z,1.27
2023-03-17T14:20:40.261Z,1.30
2023-03-17T14:23:27.499Z,1.25
2023-03-17T14:26:14.303Z,1.10
2023-03-17T14:29:01.545Z,1.30
2023-03-17T14:31:56.928Z,1.77
2023-03-17T14:34:44.035Z,1.00
2023-03-17T14:37:38.492Z,1.40
2023-03-17T14:40:49.710Z,1.90
2023-03-17T14:43:47.434Z,1.40
2023-03-17T14:46:47.194Z,1.30
2023-03-17T14:49:41.787Z,0.93
2023-03-17T14:52:47.836Z,1.15
2023-03-17T14:55:45.221Z,1.35
2023-03-17T14:58:41.149Z,1.00
2023-03-17T15:01:36.524Z,1.23
2023-03-17T15:04:24.487Z,1.10
2023-03-17T15:07:10.210Z,1.92
2023-03-17T15:09:54.965Z,1.70
2023-03-17T15:12:37.118Z,1.52
2023-03-17T15:15:35.197Z,1.80
2023-03-17T15:18:25.531Z,3.60
2023-03-17T15:21:11.969Z,1.75
2023-03-17T15:23:54.750Z,2.33
2023-03-17T15:26:42.479Z,1.30
2023-03-17T15:29:27.604Z,2.53
2023-03-17T15:32:17.080Z,2.35
2023-03-17T15:35:00.111Z,2.70
2023-03-17T15:37:52.847Z,2.00
2023-03-17T15:40:33.635Z,2.38
2023-03-17T15:43:23.275Z,1.73
2023-03-17T15:46:17.978Z,2.00
2023-03-17T15:48:56.214Z,1.70
2023-03-17T15:51:47.391Z,2.40
2023-03-17T15:54:32.742Z,2.90
2023-03-17T15:57:22.418Z,2.80
2023-03-17T16:00:04.831Z,3.38
2023-03-17T16:02:53.123Z,2.60
2023-03-17T16:05:35.558Z,1.88
2023-03-17T16:08:16.580Z,1.58
2023-03-17T16:11:32.597Z,1.80
2023-03-17T16:14:51.736Z,1.73
2023-03-17T16:17:37.825Z,1.70
2023-03-17T16:22:15.911Z,1.80
2023-03-17T16:34:54.740Z,2.20
2023-03-17T16:37:48.660Z,2.60
2023-03-17T16:55:50.626Z,2.88
2023-03-17T16:59:38.153Z,2.58
2023-03-17T17:08:26.633Z,3.13
2023-03-17T17:11:47.249Z,2.72
2023-03-17T17:14:43.460Z,2.70
2023-03-17T17:21:17.891Z,2.00
2023-03-17T17:23:46.344Z,1.83
2023-03-17T17:26:18.730Z,1.90
2023-03-17T17:28:47.245Z,1.92
2023-03-17T17:31:16.032Z,2.55
2023-03-17T17:33:45.303Z,1.70
2023-03-17T17:36:16.479Z,1.30
2023-03-17T17:38:47.858Z,2.45
2023-03-17T17:41:17.270Z,1.60
2023-03-17T17:43:47.271Z,1.88
2023-03-17T17:46:19.507Z,1.90
2023-03-17T17:48:51.068Z,1.70
2023-03-17T17:51:23.299Z,2.20
2023-03-17T17:53:51.742Z,2.00
2023-03-17T17:56:20.349Z,2.30
2023-03-17T17:58:50.196Z,2.15
2023-03-17T18:01:44.546Z,2.47
2023-03-17T18:04:17.063Z,2.00
2023-03-17T18:06:45.998Z,2.30
2023-03-17T18:09:15.145Z,1.60
2023-03-17T18:11:43.171Z,1.85
2023-03-17T18:14:14.128Z,2.83
2023-03-17T18:17:11.056Z,7.38
2023-03-17T18:29:10.594Z,4.60
2023-03-17T18:32:15.884Z,2.90
2023-03-17T18:53:26.961Z,3.95
2023-03-17T18:55:55.849Z,3.33
2023-03-17T18:58:35.277Z,3.10
2023-03-17T19:01:06.325Z,2.70
2023-03-17T19:03:35.119Z,4.10
2023-03-17T19:06:09.959Z,3.53
2023-03-17T19:08:39.543Z,5.57
2023-03-17T19:11:09.057Z,5.43
2023-03-17T19:13:37.869Z,4.22
2023-03-17T19:16:07.554Z,3.40
2023-03-17T19:18:36.632Z,4.55
2023-03-17T19:21:05.112Z,3.42
2023-03-17T19:23:33.791Z,3.20
2023-03-17T19:26:04.678Z,3.20
2023-03-17T19:28:32.671Z,3.35
2023-03-17T19:31:01.127Z,4.30
2023-03-17T19:33:29.762Z,3.00
2023-03-17T19:35:59.983Z,4.30
2023-03-17T19:38:28.485Z,3.15
2023-03-17T19:40:56.483Z,3.13
2023-03-17T19:43:39.531Z,3.58
2023-03-17T19:46:10.509Z,4.13
2023-03-17T19:48:38.676Z,4.63
2023-03-17T19:51:07.988Z,4.50
2023-03-17T19:53:37.421Z,4.53
2023-03-17T19:56:06.443Z,3.90
2023-03-17T19:58:36.008Z,5.20
2023-03-17T20:01:04.129Z,5.90
2023-03-17T20:03:33.567Z,5.80
2023-03-17T20:06:06.025Z,6.83
2023-03-17T20:08:34.358Z,4.43
2023-03-17T20:11:02.436Z,4.47
2023-03-17T20:13:30.534Z,5.50
2023-03-17T20:16:02.783Z,5.90
2023-03-17T20:18:31.012Z,8.53
2023-03-17T20:21:00.613Z,7.50
2023-03-17T20:23:28.633Z,7.10
2023-03-17T20:25:57.038Z,6.20
2023-03-17T20:28:25.337Z,7.47
2023-03-17T20:30:53.914Z,6.60
2023-03-17T20:33:23.561Z,6.50
2023-03-17T20:35:51.663Z,6.03
2023-03-17T20:38:19.762Z,8.47
2023-03-17T20:40:48.277Z,7.80
2023-03-17T20:43:17.036Z,6.80
2023-03-17T20:45:45.711Z,6.53
2023-03-17T20:48:14.453Z,6.03
2023-03-17T20:50:49.857Z,5.63
2023-03-17T20:53:17.809Z,5.60
2023-03-17T20:55:47.185Z,9.00
2023-03-17T20:58:15.035Z,6.80
2023-03-17T21:00:42.903Z,6.00
2023-03-17T21:03:10.813Z,7.20
2023-03-17T21:05:39.465Z,5.83
2023-03-17T21:08:08.770Z,5.53
2023-03-17T21:10:36.945Z,5.10
2023-03-17T21:13:05.099Z,8.50
2023-03-17T21:15:33.060Z,6.17
2023-03-17T21:18:01.121Z,6.00
2023-03-17T21:20:29.516Z,5.53
2023-03-17T21:22:57.805Z,5.33
2023-03-17T21:25:28.135Z,5.33
2023-03-17T21:27:56.479Z,5.60
2023-03-17T21:30:24.351Z,5.30
2023-03-17T21:32:53.669Z,7.47
2023-03-17T21:35:21.766Z,8.60
2023-03-17T21:37:50.489Z,9.00
2023-03-17T21:40:19.002Z,8.57
2023-03-17T21:42:49.315Z,9.90
2023-03-17T21:45:17.974Z,8.77
2023-03-17T21:47:45.897Z,9.27
2023-03-17T21:50:17.103Z,8.73
2023-03-17T21:52:45.792Z,9.37
2023-03-17T21:55:14.459Z,7.37
2023-03-17T21:57:42.987Z,5.87
2023-03-17T22:00:13.934Z,6.90
2023-03-17T22:02:42.846Z,6.20
2023-03-17T22:05:11.434Z,7.40
2023-03-17T22:07:41.334Z,9.50
2023-03-17T22:10:10.230Z,8.90
2023-03-17T22:12:38.930Z,8.27
2023-03-17T22:15:08.847Z,7.83
2023-03-17T22:17:38.157Z,6.13
2023-03-17T22:20:09.114Z,5.67
2023-03-17T22:22:37.145Z,5.93
2023-03-17T22:25:06.248Z,6.47
2023-03-17T22:27:34.614Z,6.10
2023-03-17T22:30:02.671Z,6.00
2023-03-17T22:32:30.869Z,6.07
2023-03-17T22:35:00.286Z,8.07
2023-03-17T22:37:28.244Z,6.67
2023-03-17T22:39:56.063Z,6.20
2023-03-17T22:42:23.844Z,6.17
2023-03-17T22:44:51.782Z,7.90
2023-03-17T22:47:19.722Z,6.10
2023-03-17T22:49:47.582Z,6.03
2023-03-17T22:52:16.828Z,6.03
2023-03-17T22:54:44.752Z,5.70
2023-03-17T22:57:12.690Z,6.33
2023-03-17T22:59:40.529Z,6.80
2023-03-17T23:02:09.045Z,9.50
2023-03-17T23:04:37.025Z,7.57
2023-03-17T23:07:05.326Z,8.73
2023-03-17T23:09:34.855Z,8.70
2023-03-17T23:12:02.824Z,7.40
2023-03-17T23:14:30.832Z,11.20
2023-03-17T23:16:58.764Z,14.20
2023-03-17T23:19:27.380Z,13.07
2023-03-17T23:21:55.307Z,11.07
2023-03-17T23:24:23.218Z,9.07
2023-03-17T23:26:53.477Z,8.77
2023-03-17T23:29:21.394Z,8.73
2023-03-17T23:31:51.417Z,8.33
2023-03-17T23:34:19.635Z,10.07
2023-03-17T23:36:47.606Z,9.80
2023-03-17T23:39:15.634Z,9.07
2023-03-17T23:41:44.903Z,7.43
2023-03-17T23:44:14.851Z,6.13
2023-03-17T23:46:44.930Z,6.87
2023-03-17T23:49:13.264Z,6.00
2023-03-17T23:51:41.710Z,7.30
2023-03-17T23:54:10.218Z,5.73
2023-03-17T23:56:40.908Z,6.90
2023-03-17T23:59:10.696Z,7.50
